createdAt,value
2023-12-28T00:01:19.783Z,2.53
2023-12-28T00:03:48.053Z,4.53
2023-12-28T00:06:18.068Z,2.70
2023-12-28T00:08:50.650Z,3.07
2023-12-28T00:11:24.710Z,2.57
2023-12-28T00:13:52.618Z,4.50
2023-12-28T00:16:20.520Z,2.27
2023-12-28T00:18:48.532Z,3.57
2023-12-28T00:21:17.822Z,3.93
2023-12-28T00:23:45.770Z,5.80
2023-12-28T00:26:13.809Z,4.37
2023-12-28T00:28:41.745Z,7.80
2023-12-28T00:31:11.524Z,5.00
2023-12-28T00:33:39.536Z,2.67
2023-12-28T00:36:07.888Z,4.20
2023-12-28T00:38:37.156Z,4.17
2023-12-28T00:41:05.285Z,2.20
2023-12-28T00:43:33.338Z,2.77
2023-12-28T00:46:01.224Z,2.50
2023-12-28T00:48:29.777Z,3.03
2023-12-28T00:50:59.727Z,3.20
2023-12-28T00:53:27.277Z,3.13
2023-12-28T00:55:56.612Z,2.83
2023-12-28T00:58:24.659Z,4.90
2023-12-28T01:00:54.673Z,3.33
2023-12-28T01:03:22.784Z,2.50
2023-12-28T01:05:53.658Z,4.07
2023-12-28T01:08:21.605Z,3.13
2023-12-28T01:10:49.725Z,5.07
2023-12-28T01:13:19.388Z,7.37
2023-12-28T01:15:47.418Z,7.63
2023-12-28T01:18:16.036Z,3.13
2023-12-28T01:20:44.172Z,2.33
2023-12-28T01:23:12.181Z,4.43
2023-12-28T01:25:40.147Z,3.10
2023-12-28T01:28:08.094Z,5.23
2023-12-28T01:30:37.398Z,3.53
2023-12-28T01:33:05.983Z,4.13
2023-12-28T01:35:34.090Z,3.63
2023-12-28T01:38:02.834Z,4.70
2023-12-28T01:40:31.077Z,4.53
2023-12-28T01:42:59.140Z,4.13
2023-12-28T01:45:27.329Z,1.93
2023-12-28T01:48:00.177Z,2.07
2023-12-28T01:50:28.909Z,4.50
2023-12-28T01:52:58.482Z,5.33
2023-12-28T01:55:27.334Z,5.00
2023-12-28T01:57:56.399Z,3.30
2023-12-28T02:00:24.811Z,6.57
2023-12-28T02:02:53.278Z,3.10
2023-12-28T02:05:23.587Z,4.80
2023-12-28T02:07:51.936Z,3.30
2023-12-28T02:10:19.825Z,4.03
2023-12-28T02:12:48.636Z,3.50
2023-12-28T02:15:16.769Z,4.60
2023-12-28T02:17:49.972Z,2.37
2023-12-28T02:20:18.627Z,2.20
2023-12-28T02:22:48.438Z,3.57
2023-12-28T02:25:20.506Z,2.60
2023-12-28T02:27:50.143Z,6.43
2023-12-28T02:30:19.760Z,3.50
2023-12-28T02:32:58.941Z,15.53
2023-12-28T02:35:34.724Z,3.50
2023-12-28T02:38:08.149Z,5.00
2023-12-28T02:40:39.959Z,5.33
2023-12-28T02:43:08.654Z,4.33
2023-12-28T02:45:37.065Z,5.47
2023-12-28T02:48:06.267Z,4.30
2023-12-28T02:50:35.096Z,5.63
2023-12-28T02:53:03.719Z,4.73
2023-12-28T02:55:34.506Z,5.10
2023-12-28T02:58:04.167Z,3.87
2023-12-28T03:00:32.892Z,3.67
2023-12-28T03:03:00.898Z,3.87
2023-12-28T03:05:28.869Z,7.87
2023-12-28T03:07:58.557Z,4.77
2023-12-28T03:10:26.958Z,8.10
2023-12-28T03:12:54.955Z,4.37
2023-12-28T03:15:24.387Z,3.00
2023-12-28T03:17:52.569Z,9.60
2023-12-28T03:20:20.698Z,3.63
2023-12-28T03:22:48.607Z,3.93
2023-12-28T03:25:16.727Z,4.07
2023-12-28T03:27:44.713Z,5.17
2023-12-28T03:30:13.926Z,7.13
2023-12-28T03:32:43.332Z,5.97
2023-12-28T03:35:11.267Z,4.23
2023-12-28T03:37:39.161Z,4.70
2023-12-28T03:40:08.919Z,7.43
2023-12-28T03:42:36.867Z,6.27
2023-12-28T03:45:06.406Z,3.93
2023-12-28T03:47:34.332Z,7.67
2023-12-28T03:50:03.834Z,5.40
2023-12-28T03:52:33.138Z,4.63
2023-12-28T03:55:01.125Z,6.47
2023-12-28T03:57:30.358Z,5.37
2023-12-28T03:59:58.606Z,6.47
2023-12-28T04:02:28.900Z,4.20
2023-12-28T04:04:58.970Z,7.40
2023-12-28T04:07:29.783Z,4.47
2023-12-28T04:09:59.825Z,8.23
2023-12-28T04:12:31.761Z,6.73
2023-12-28T04:14:59.718Z,6.13
2023-12-28T04:17:27.677Z,4.50
2023-12-28T04:19:55.883Z,4.63
2023-12-28T04:22:23.903Z,5.97
2023-12-28T04:24:53.801Z,4.50
2023-12-28T04:27:21.785Z,6.17
2023-12-28T04:29:49.803Z,7.77
2023-12-28T04:32:18.099Z,6.63
2023-12-28T04:34:46.010Z,6.33
2023-12-28T04:37:13.901Z,5.33
2023-12-28T04:39:41.884Z,6.43
2023-12-28T04:42:11.115Z,10.13
2023-12-28T04:44:40.394Z,7.80
2023-12-28T04:49:36.705Z,6.37
2023-12-28T04:52:05.143Z,8.43
2023-12-28T04:54:34.375Z,7.00
2023-12-28T04:57:02.324Z,10.93
2023-12-28T04:59:34.336Z,6.97
2023-12-28T05:02:02.621Z,8.70
2023-12-28T05:04:31.037Z,12.20
2023-12-28T05:06:59.072Z,5.90
2023-12-28T05:09:27.006Z,7.63
2023-12-28T05:11:55.005Z,5.57
2023-12-28T05:14:22.932Z,9.70
2023-12-28T05:16:52.532Z,5.27
2023-12-28T05:19:20.481Z,7.77
2023-12-28T05:21:48.522Z,7.90
2023-12-28T05:24:16.531Z,14.13
2023-12-28T05:26:44.440Z,7.95
2023-12-28T05:29:12.433Z,10.83
2023-12-28T05:31:40.582Z,9.60
2023-12-28T05:34:10.003Z,8.77
2023-12-28T05:36:38.546Z,11.23
2023-12-28T05:39:06.937Z,11.07
2023-12-28T05:41:34.815Z,8.20
2023-12-28T05:44:02.693Z,14.30
2023-12-28T05:46:30.916Z,7.33
2023-12-28T05:48:58.927Z,10.60
2023-12-28T05:51:28.271Z,9.13
2023-12-28T05:53:56.209Z,7.35
2023-12-28T05:56:24.098Z,12.63
2023-12-28T05:58:52.323Z,14.57
2023-12-28T06:01:20.284Z,12.82
2023-12-28T06:03:50.912Z,8.73
2023-12-28T06:06:18.988Z,8.57
2023-12-28T06:08:48.400Z,6.35
2023-12-28T06:11:16.662Z,12.07
2023-12-28T06:13:44.516Z,8.07
2023-12-28T06:16:12.789Z,11.77
2023-12-28T06:18:40.934Z,7.47
2023-12-28T06:21:10.449Z,6.15
2023-12-28T06:23:38.714Z,11.48
2023-12-28T06:26:08.723Z,9.50
2023-12-28T06:28:36.650Z,9.10
2023-12-28T06:31:05.892Z,10.60
2023-12-28T06:33:34.439Z,11.95
2023-12-28T06:36:07.395Z,11.13
2023-12-28T06:38:35.301Z,9.13
2023-12-28T06:41:03.270Z,12.07
2023-12-28T06:43:32.614Z,13.68
2023-12-28T06:46:00.601Z,13.35
2023-12-28T06:48:28.641Z,12.82
2023-12-28T06:50:58.188Z,11.25
2023-12-28T06:53:26.183Z,11.80
2023-12-28T06:55:54.108Z,9.90
2023-12-28T06:58:22.055Z,10.00
2023-12-28T07:00:51.980Z,12.32
2023-12-28T07:03:20.032Z,13.90
2023-12-28T07:05:47.986Z,9.52
2023-12-28T07:08:16.480Z,11.57
2023-12-28T07:10:44.339Z,12.85
2023-12-28T07:13:12.241Z,13.10
2023-12-28T07:15:40.184Z,13.00
2023-12-28T07:18:09.876Z,17.02
2023-12-28T07:20:37.800Z,12.23
2023-12-28T07:23:05.889Z,12.00
2023-12-28T07:25:34.528Z,12.00
2023-12-28T07:28:02.772Z,13.23
2023-12-28T07:30:30.974Z,11.35
2023-12-28T07:32:59.291Z,9.07
2023-12-28T07:35:28.662Z,11.67
2023-12-28T07:37:57.076Z,9.33
2023-12-28T07:40:25.236Z,11.82
2023-12-28T07:42:55.263Z,10.17
2023-12-28T07:45:25.551Z,14.68
2023-12-28T07:47:54.058Z,13.35
2023-12-28T07:50:22.258Z,14.33
2023-12-28T07:52:51.964Z,8.13
2023-12-28T07:55:20.493Z,15.07
2023-12-28T07:57:48.495Z,15.43
2023-12-28T08:00:17.007Z,10.43
2023-12-28T08:02:45.024Z,12.43
2023-12-28T08:05:13.743Z,13.10
2023-12-28T08:07:41.671Z,14.50
2023-12-28T08:10:11.697Z,16.90
2023-12-28T08:12:40.186Z,9.32
2023-12-28T08:15:09.287Z,11.68
2023-12-28T08:17:37.255Z,12.18
2023-12-28T08:20:06.121Z,9.38
2023-12-28T08:22:34.662Z,14.80
2023-12-28T08:25:02.766Z,9.32
2023-12-28T08:27:34.297Z,11.47
2023-12-28T08:30:02.177Z,18.52
2023-12-28T08:32:30.968Z,12.70
2023-12-28T08:34:59.016Z,10.98
2023-12-28T08:37:27.076Z,11.10
2023-12-28T08:39:56.481Z,16.90
2023-12-28T08:42:25.867Z,12.67
2023-12-28T08:44:55.273Z,10.80
2023-12-28T08:47:23.489Z,13.43
2023-12-28T08:49:52.299Z,17.50
2023-12-28T08:52:20.508Z,11.10
2023-12-28T08:54:48.727Z,23.30
2023-12-28T08:57:20.943Z,10.27
2023-12-28T08:59:54.752Z,17.60
2023-12-28T09:02:22.634Z,12.85
2023-12-28T09:04:50.856Z,12.60
2023-12-28T09:07:20.668Z,10.73
2023-12-28T09:09:48.750Z,14.27
2023-12-28T09:12:16.987Z,11.50
2023-12-28T09:14:45.148Z,10.98
2023-12-28T09:17:14.923Z,12.40
2023-12-28T09:19:43.571Z,11.43
2023-12-28T09:22:11.835Z,11.13
2023-12-28T09:24:39.861Z,10.33
2023-12-28T09:27:08.286Z,15.15
2023-12-28T09:29:36.218Z,15.00
2023-12-28T09:32:04.290Z,11.88
2023-12-28T09:34:34.064Z,14.32
2023-12-28T09:37:05.379Z,12.20
2023-12-28T09:39:33.382Z,14.15
2023-12-28T09:42:03.575Z,14.23
2023-12-28T09:44:32.991Z,12.43
2023-12-28T09:47:06.118Z,14.63
2023-12-28T09:49:37.600Z,14.82
2023-12-28T09:52:07.318Z,15.95
2023-12-28T09:54:36.410Z,13.40
2023-12-28T09:57:06.536Z,15.13
2023-12-28T09:59:35.380Z,15.35
2023-12-28T10:02:04.291Z,17.15
2023-12-28T10:04:32.810Z,12.13
2023-12-28T10:07:02.326Z,12.27
2023-12-28T10:09:31.685Z,12.80
2023-12-28T10:12:00.386Z,16.85
2023-12-28T10:14:28.626Z,19.47
2023-12-28T10:16:56.655Z,14.77
2023-12-28T10:19:25.288Z,16.88
2023-12-28T10:21:53.407Z,14.82
2023-12-28T10:24:23.179Z,11.30
2023-12-28T10:26:52.041Z,18.85
2023-12-28T10:29:19.923Z,12.45
2023-12-28T10:31:50.762Z,13.48
2023-12-28T10:34:20.170Z,11.10
2023-12-28T10:36:53.151Z,21.02
2023-12-28T10:39:24.765Z,13.50
2023-12-28T10:41:56.646Z,15.13
2023-12-28T10:44:28.873Z,10.00
2023-12-28T10:47:02.377Z,11.77
2023-12-28T10:49:37.380Z,13.50
2023-12-28T10:52:10.097Z,12.88
2023-12-28T10:54:49.131Z,15.75
2023-12-28T10:57:28.375Z,12.88
2023-12-28T11:00:04.532Z,16.92
2023-12-28T11:02:41.197Z,17.23
2023-12-28T11:05:09.850Z,17.48
2023-12-28T11:07:38.970Z,17.42
2023-12-28T11:10:11.291Z,15.20
2023-12-28T11:12:39.676Z,13.55
2023-12-28T11:15:10.951Z,17.17
2023-12-28T11:17:40.175Z,14.25
2023-12-28T11:20:10.935Z,16.42
2023-12-28T11:22:41.258Z,12.20
2023-12-28T11:25:17.014Z,21.67
2023-12-28T11:27:45.012Z,14.25
2023-12-28T11:30:15.518Z,16.58
2023-12-28T11:32:45.141Z,12.82
2023-12-28T11:35:15.354Z,19.90
2023-12-28T11:37:47.238Z,15.02
2023-12-28T11:40:20.682Z,21.58
2023-12-28T11:42:56.227Z,14.77
2023-12-28T11:45:26.357Z,20.08
2023-12-28T11:48:04.858Z,9.93
2023-12-28T11:50:34.134Z,14.98
2023-12-28T11:53:02.374Z,12.82
2023-12-28T11:55:33.182Z,14.98
2023-12-28T11:58:01.441Z,17.60
2023-12-28T12:00:29.864Z,14.38
2023-12-28T12:02:58.165Z,12.25
2023-12-28T12:05:26.398Z,12.95
2023-12-28T12:07:54.412Z,14.55
2023-12-28T12:10:22.663Z,12.88
2023-12-28T12:12:54.387Z,16.20
2023-12-28T12:15:22.625Z,18.80
2023-12-28T12:17:53.521Z,13.32
2023-12-28T12:20:22.221Z,19.48
2023-12-28T12:22:50.811Z,12.40
2023-12-28T12:25:20.742Z,17.48
2023-12-28T12:27:48.717Z,16.13
2023-12-28T12:30:18.412Z,18.23
2023-12-28T12:32:46.733Z,14.95
2023-12-28T12:35:21.800Z,21.05
2023-12-28T12:37:52.276Z,14.60
2023-12-28T12:40:22.187Z,13.45
2023-12-28T12:42:56.597Z,20.70
2023-12-28T12:45:26.523Z,12.25
2023-12-28T12:47:54.715Z,14.35
2023-12-28T12:50:22.697Z,13.35
2023-12-28T12:52:50.876Z,12.55
2023-12-28T12:55:19.690Z,14.18
2023-12-28T12:57:47.689Z,13.93
2023-12-28T13:00:16.462Z,15.73
2023-12-28T13:02:46.873Z,12.32
2023-12-28T13:05:14.907Z,11.70
2023-12-28T13:07:43.943Z,15.85
2023-12-28T13:10:12.783Z,16.65
2023-12-28T13:12:40.795Z,18.80
2023-12-28T13:15:10.829Z,9.27
2023-12-28T13:17:38.971Z,11.90
2023-12-28T13:20:09.564Z,12.38
2023-12-28T13:22:41.888Z,12.98
2023-12-28T13:25:12.897Z,14.25
2023-12-28T13:27:40.884Z,17.73
2023-12-28T13:30:09.994Z,15.10
2023-12-28T13:32:38.141Z,14.93
2023-12-28T13:35:08.385Z,11.60
2023-12-28T13:37:39.346Z,20.70
2023-12-28T13:40:09.209Z,11.90
2023-12-28T13:42:37.168Z,11.60
2023-12-28T13:45:06.130Z,15.18
2023-12-28T13:47:34.077Z,16.65
2023-12-28T13:50:02.178Z,17.25
2023-12-28T13:52:36.446Z,10.75
2023-12-28T13:55:04.957Z,13.45
2023-12-28T13:57:33.131Z,13.18
2023-12-28T14:00:02.140Z,8.85
2023-12-28T14:02:31.639Z,10.05
2023-12-28T14:05:00.041Z,14.68
2023-12-28T14:07:28.220Z,11.25
2023-12-28T14:09:57.653Z,14.45
2023-12-28T14:12:25.936Z,14.15
2023-12-28T14:14:53.879Z,13.38
2023-12-28T14:17:22.233Z,14.55
2023-12-28T14:19:53.273Z,15.70
2023-12-28T14:22:21.838Z,13.25
2023-12-28T14:24:50.777Z,15.63
2023-12-28T14:27:21.318Z,15.32
2023-12-28T14:29:51.934Z,11.98
2023-12-28T14:32:20.658Z,13.80
2023-12-28T14:34:51.876Z,17.48
2023-12-28T14:37:20.407Z,16.75
2023-12-28T14:39:48.349Z,9.85
2023-12-28T14:42:16.392Z,15.40
2023-12-28T14:44:45.806Z,14.90
2023-12-28T14:47:13.802Z,11.40
2023-12-28T14:49:46.724Z,11.93
2023-12-28T14:52:14.955Z,15.50
2023-12-28T14:54:42.876Z,9.32
2023-12-28T14:57:12.969Z,19.55
2023-12-28T14:59:41.321Z,13.55
2023-12-28T15:02:10.619Z,18.27
2023-12-28T15:04:42.677Z,12.85
2023-12-28T15:07:10.731Z,12.13
2023-12-28T15:09:38.913Z,13.48
2023-12-28T15:12:07.814Z,12.95
2023-12-28T15:14:36.301Z,13.60
2023-12-28T15:17:08.424Z,14.33
2023-12-28T15:19:40.010Z,14.10
2023-12-28T15:22:08.834Z,10.55
2023-12-28T15:24:37.924Z,17.50
2023-12-28T15:27:08.303Z,11.82
2023-12-28T15:29:36.897Z,12.90
2023-12-28T15:32:05.246Z,12.73
2023-12-28T15:34:33.761Z,15.23
2023-12-28T15:37:09.222Z,10.80
2023-12-28T15:39:37.797Z,16.30
2023-12-28T15:42:06.265Z,9.02
2023-12-28T15:44:34.191Z,14.10
2023-12-28T15:47:02.126Z,10.23
2023-12-28T15:49:30.967Z,15.02
2023-12-28T15:51:58.937Z,13.60
2023-12-28T15:54:29.903Z,12.15
2023-12-28T15:56:58.214Z,10.90
2023-12-28T15:59:26.189Z,12.37
2023-12-28T16:01:54.097Z,15.93
2023-12-28T16:04:22.248Z,10.80
2023-12-28T16:06:50.778Z,11.25
2023-12-28T16:09:18.730Z,13.20
2023-12-28T16:11:47.962Z,13.07
2023-12-28T16:14:20.159Z,12.38
2023-12-28T16:16:49.757Z,11.10
2023-12-28T16:19:18.396Z,10.23
2023-12-28T16:21:48.591Z,12.60
2023-12-28T16:24:17.652Z,12.38
2023-12-28T16:26:46.923Z,14.88
2023-12-28T16:29:14.859Z,17.88
2023-12-28T16:31:44.072Z,12.95
2023-12-28T16:34:15.474Z,11.48
2023-12-28T16:36:45.224Z,12.67
2023-12-28T16:39:15.998Z,8.40
2023-12-28T16:41:43.938Z,14.60
2023-12-28T16:44:15.535Z,11.93
2023-12-28T16:46:49.098Z,12.70
2023-12-28T16:49:18.575Z,8.20
2023-12-28T16:51:49.666Z,8.15
2023-12-28T16:54:18.480Z,15.55
2023-12-28T16:56:46.398Z,10.88
2023-12-28T16:59:16.535Z,12.80
2023-12-28T17:01:46.181Z,14.40
2023-12-28T17:04:14.927Z,18.15
2023-12-28T17:06:43.129Z,15.95
2023-12-28T17:09:11.255Z,8.73
2023-12-28T17:11:41.565Z,17.73
2023-12-28T17:14:10.050Z,12.05
2023-12-28T17:16:42.615Z,9.73
2023-12-28T17:19:11.145Z,12.38
2023-12-28T17:21:42.889Z,12.82
2023-12-28T17:24:15.907Z,12.17
2023-12-28T17:26:48.933Z,10.75
2023-12-28T17:29:17.122Z,9.35
2023-12-28T17:31:57.395Z,10.30
2023-12-28T17:34:25.760Z,14.20
2023-12-28T17:36:54.199Z,14.77
2023-12-28T17:39:24.141Z,12.93
2023-12-28T17:41:56.337Z,10.90
2023-12-28T17:44:26.797Z,12.87
2023-12-28T17:46:59.008Z,10.40
2023-12-28T17:49:29.501Z,12.83
2023-12-28T17:51:59.185Z,9.70
2023-12-28T17:54:27.832Z,7.32
2023-12-28T17:56:56.193Z,9.70
2023-12-28T17:59:29.704Z,10.38
2023-12-28T18:02:00.837Z,8.87
2023-12-28T18:04:31.034Z,14.63
2023-12-28T18:06:59.396Z,8.75
2023-12-28T18:09:28.343Z,11.23
2023-12-28T18:11:56.485Z,14.05
2023-12-28T18:14:24.573Z,12.73
2023-12-28T18:16:58.089Z,14.87
2023-12-28T18:19:27.418Z,17.88
2023-12-28T18:21:55.475Z,10.13
2023-12-28T18:24:24.222Z,13.00
2023-12-28T18:26:52.367Z,9.77
2023-12-28T18:29:20.342Z,9.67
2023-12-28T18:31:54.434Z,10.00
2023-12-28T18:34:22.384Z,12.13
2023-12-28T18:36:56.016Z,9.63
2023-12-28T18:39:28.673Z,10.00
2023-12-28T18:41:56.690Z,12.20
2023-12-28T18:44:24.805Z,10.83
2023-12-28T18:46:52.873Z,13.55
2023-12-28T18:49:20.837Z,7.65
2023-12-28T18:51:48.804Z,7.82
2023-12-28T18:54:18.093Z,11.52
2023-12-28T18:56:46.007Z,18.17
2023-12-28T18:59:13.861Z,10.50
2023-12-28T19:01:41.864Z,8.60
2023-12-28T19:04:09.995Z,9.82
2023-12-28T19:06:38.046Z,12.35
2023-12-28T19:09:06.286Z,12.73
2023-12-28T19:11:36.961Z,9.70
2023-12-28T19:14:04.841Z,13.50
2023-12-28T19:16:33.029Z,7.05
2023-12-28T19:19:01.042Z,7.03
2023-12-28T19:21:29.051Z,12.32
2023-12-28T19:23:57.464Z,10.55
2023-12-28T19:26:25.383Z,12.50
2023-12-28T19:28:55.312Z,8.43
2023-12-28T19:31:23.950Z,10.02
2023-12-28T19:33:52.693Z,10.53
2023-12-28T19:36:20.684Z,11.23
2023-12-28T19:38:48.631Z,10.02
2023-12-28T19:41:16.520Z,11.30
2023-12-28T19:43:47.235Z,9.68
2023-12-28T19:46:16.604Z,9.35
2023-12-28T19:48:44.686Z,9.77
2023-12-28T19:51:12.824Z,9.48
2023-12-28T19:53:41.588Z,9.05
2023-12-28T19:56:09.951Z,8.80
2023-12-28T19:58:37.803Z,6.50
2023-12-28T20:01:07.497Z,9.95
2023-12-28T20:03:37.006Z,9.20
2023-12-28T20:06:09.243Z,9.43
2023-12-28T20:08:40.221Z,11.63
2023-12-28T20:11:09.020Z,6.63
2023-12-28T20:13:36.959Z,8.82
2023-12-28T20:16:07.069Z,12.73
2023-12-28T20:18:36.668Z,8.90
2023-12-28T20:21:05.180Z,9.53
2023-12-28T20:23:33.130Z,10.63
2023-12-28T20:26:01.136Z,9.75
2023-12-28T20:28:29.073Z,10.32
2023-12-28T20:30:57.188Z,9.77
2023-12-28T20:33:25.354Z,8.68
2023-12-28T20:35:54.677Z,10.00
2023-12-28T20:38:22.631Z,15.27
2023-12-28T20:40:52.250Z,9.45
2023-12-28T20:43:20.292Z,6.65
2023-12-28T20:45:49.128Z,9.95
2023-12-28T20:48:17.543Z,12.68
2023-12-28T20:50:45.543Z,8.15
2023-12-28T20:53:14.921Z,12.85
2023-12-28T20:55:42.811Z,8.32
2023-12-28T20:58:10.823Z,9.07
2023-12-28T21:00:38.942Z,10.77
2023-12-28T21:03:06.853Z,9.07
2023-12-28T21:05:34.919Z,11.48
2023-12-28T21:08:02.970Z,10.05
2023-12-28T21:10:33.399Z,7.65
2023-12-28T21:13:05.176Z,9.38
2023-12-28T21:15:33.459Z,11.32
2023-12-28T21:18:12.327Z,7.57
2023-12-28T21:20:57.398Z,9.55
2023-12-28T21:23:32.411Z,12.20
2023-12-28T21:26:02.021Z,9.23
2023-12-28T21:28:29.929Z,10.15
2023-12-28T21:30:57.932Z,9.93
2023-12-28T21:33:26.196Z,8.50
2023-12-28T21:35:54.259Z,7.00
2023-12-28T21:38:22.330Z,8.65
2023-12-28T21:40:50.844Z,10.38
2023-12-28T21:43:20.153Z,8.18
2023-12-28T21:45:51.463Z,9.57
2023-12-28T21:48:19.820Z,7.05
2023-12-28T21:50:47.846Z,9.55
2023-12-28T21:53:18.941Z,20.58
2023-12-28T21:55:46.866Z,8.95
2023-12-28T21:58:15.115Z,9.32
2023-12-28T22:00:44.538Z,10.52
2023-12-28T22:03:13.831Z,9.38
2023-12-28T22:05:42.267Z,8.52
2023-12-28T22:08:10.347Z,9.27
2023-12-28T22:10:38.447Z,12.27
2023-12-28T22:13:07.675Z,9.15
2023-12-28T22:15:37.034Z,9.95
2023-12-28T22:18:08.959Z,13.48
2023-12-28T22:20:37.045Z,7.78
2023-12-28T22:23:05.214Z,6.47
2023-12-28T22:25:33.164Z,8.90
2023-12-28T22:28:01.207Z,10.63
2023-12-28T22:30:32.572Z,9.18
2023-12-28T22:33:01.089Z,5.90
2023-12-28T22:35:30.862Z,12.82
2023-12-28T22:37:58.884Z,12.70
2023-12-28T22:40:27.402Z,8.48
2023-12-28T22:42:56.606Z,8.98
2023-12-28T22:45:24.605Z,8.57
2023-12-28T22:47:52.593Z,8.50
2023-12-28T22:50:20.944Z,10.23
2023-12-28T22:52:52.496Z,14.02
2023-12-28T22:55:20.480Z,7.38
2023-12-28T22:57:48.425Z,15.23
2023-12-28T23:00:22.706Z,7.00
2023-12-28T23:02:51.381Z,10.05
2023-12-28T23:05:19.408Z,8.13
2023-12-28T23:07:47.380Z,9.30
2023-12-28T23:10:16.844Z,11.10
2023-12-28T23:12:44.813Z,10.50
2023-12-28T23:15:12.827Z,7.30
2023-12-28T23:17:40.786Z,8.25
2023-12-28T23:20:09.374Z,10.13
2023-12-28T23:22:37.401Z,8.68
2023-12-28T23:25:05.867Z,11.45
2023-12-28T23:27:35.381Z,10.18
2023-12-28T23:30:03.374Z,10.40
2023-12-28T23:32:32.015Z,7.47
2023-12-28T23:35:00.291Z,6.97
2023-12-28T23:37:28.311Z,9.55
2023-12-28T23:39:56.501Z,9.65
2023-12-28T23:42:24.556Z,10.65
2023-12-28T23:44:53.925Z,9.73
2023-12-28T23:47:21.882Z,10.88
2023-12-28T23:49:49.990Z,6.25
2023-12-28T23:52:18.077Z,7.72
2023-12-28T23:54:46.087Z,8.07
2023-12-28T23:57:13.982Z,9.45
2023-12-28T23:59:41.852Z,13.30
